createdAt,value
2023-03-21T00:05:28.344Z,7.90
2023-03-21T00:11:30.551Z,7.90
2023-03-21T00:17:34.144Z,7.90
2023-03-21T00:23:36.672Z,7.80
2023-03-21T00:29:38.699Z,7.80
2023-03-21T00:36:02.568Z,7.70
2023-03-21T00:42:06.844Z,7.70
2023-03-21T00:48:09.626Z,7.70
2023-03-21T00:54:13.542Z,7.70
2023-03-21T01:00:20.604Z,7.60
2023-03-21T01:06:22.480Z,7.60
2023-03-21T01:12:24.542Z,7.50
2023-03-21T01:18:29.607Z,7.50
2023-03-21T01:24:32.462Z,7.50
2023-03-21T01:30:41.673Z,7.50
2023-03-21T01:36:43.865Z,7.50
2023-03-21T01:42:47.027Z,7.50
2023-03-21T01:56:30.723Z,7.50
2023-03-21T02:02:32.529Z,7.50
2023-03-21T02:08:39.521Z,7.50
2023-03-21T02:14:43.666Z,7.50
2023-03-21T02:20:51.163Z,7.50
2023-03-21T02:27:04.839Z,7.60
2023-03-21T02:33:15.043Z,7.60
2023-03-21T02:39:40.377Z,7.50
2023-03-21T02:45:45.565Z,7.60
2023-03-21T02:51:49.614Z,7.50
2023-03-21T02:57:53.839Z,7.60
2023-03-21T03:03:55.857Z,7.60
2023-03-21T03:10:12.563Z,7.60
2023-03-21T03:16:37.192Z,7.60
2023-03-21T03:22:46.026Z,7.60
2023-03-21T03:28:59.356Z,7.60
2023-03-21T03:35:02.558Z,7.60
2023-03-21T03:41:12.683Z,7.60
2023-03-21T03:47:36.206Z,7.60
2023-03-21T03:54:00.843Z,7.70
2023-03-21T04:00:06.373Z,7.70
2023-03-21T04:06:08.370Z,7.70
2023-03-21T04:12:10.555Z,7.70
2023-03-21T04:18:12.770Z,7.70
2023-03-21T04:24:15.487Z,7.70
2023-03-21T04:30:20.195Z,7.70
2023-03-21T04:36:26.525Z,7.70
2023-03-21T04:42:28.600Z,7.70
2023-03-21T04:48:30.620Z,7.70
2023-03-21T04:54:32.539Z,7.70
2023-03-21T05:00:38.458Z,7.70
2023-03-21T05:06:42.739Z,7.70
2023-03-21T05:12:45.281Z,7.70
2023-03-21T05:18:50.753Z,7.70
2023-03-21T05:24:55.404Z,7.70
2023-03-21T05:30:57.415Z,7.70
2023-03-21T05:36:59.512Z,7.80
2023-03-21T05:43:01.317Z,7.80
2023-03-21T05:49:03.318Z,7.90
2023-03-21T05:55:05.594Z,8.00
2023-03-21T06:01:07.969Z,8.00
2023-03-21T06:07:09.999Z,8.10
2023-03-21T06:13:11.958Z,8.10
2023-03-21T06:19:14.195Z,8.20
2023-03-21T06:25:16.862Z,8.20
2023-03-21T06:31:25.393Z,8.30
2023-03-21T06:37:27.172Z,8.40
2023-03-21T06:43:29.102Z,8.50
2023-03-21T06:49:31.574Z,8.50
2023-03-21T06:55:33.490Z,8.60
2023-03-21T07:01:37.737Z,8.70
2023-03-21T07:07:40.149Z,8.70
2023-03-21T07:13:42.107Z,8.80
2023-03-21T07:19:44.875Z,8.90
2023-03-21T07:25:48.982Z,9.10
2023-03-21T07:31:51.053Z,9.20
2023-03-21T07:37:52.851Z,9.40
2023-03-21T07:43:54.681Z,9.50
2023-03-21T07:49:56.615Z,9.50
2023-03-21T07:55:58.755Z,9.40
2023-03-21T08:02:01.848Z,9.40
2023-03-21T08:08:05.056Z,9.40
2023-03-21T08:14:06.939Z,9.60
2023-03-21T08:20:12.117Z,9.60
2023-03-21T08:26:18.518Z,9.60
2023-03-21T08:32:20.274Z,9.70
2023-03-21T08:38:22.113Z,9.60
2023-03-21T08:44:25.383Z,9.70
2023-03-21T08:50:29.581Z,9.70
2023-03-21T08:56:32.100Z,9.80
2023-03-21T09:02:34.408Z,9.80
2023-03-21T09:08:36.277Z,9.80
2023-03-21T09:14:38.354Z,9.70
2023-03-21T09:20:40.543Z,9.50
2023-03-21T09:26:44.192Z,9.60
2023-03-21T09:32:49.569Z,9.50
2023-03-21T09:38:52.237Z,9.50
2023-03-21T09:45:06.531Z,9.40
2023-03-21T09:51:15.860Z,9.60
2023-03-21T09:57:32.654Z,9.50
2023-03-21T10:03:35.510Z,9.50
2023-03-21T10:09:41.196Z,9.40
2023-03-21T10:15:43.183Z,9.50
2023-03-21T10:22:00.325Z,9.60
2023-03-21T10:28:05.620Z,9.70
2023-03-21T10:34:17.762Z,9.80
2023-03-21T10:40:20.081Z,9.70
2023-03-21T10:46:23.730Z,9.70
2023-03-21T10:52:30.200Z,10.00
2023-03-21T10:58:36.236Z,10.00
2023-03-21T11:04:39.297Z,10.00
2023-03-21T11:11:06.542Z,10.00
2023-03-21T11:17:30.020Z,10.10
2023-03-21T11:23:35.559Z,10.10
2023-03-21T11:29:45.760Z,10.30
2023-03-21T11:36:03.421Z,10.40
2023-03-21T11:42:07.254Z,10.50
2023-03-21T11:48:14.553Z,10.50
2023-03-21T11:54:19.909Z,10.50
2023-03-21T12:00:29.001Z,10.40
2023-03-21T12:06:52.393Z,10.30
2023-03-21T12:13:06.199Z,10.40
2023-03-21T12:19:29.588Z,10.40
2023-03-21T12:25:39.916Z,10.50
2023-03-21T12:32:02.189Z,10.40
2023-03-21T12:38:27.370Z,10.30
2023-03-21T12:44:34.086Z,10.10
2023-03-21T12:50:38.810Z,10.00
2023-03-21T12:57:06.726Z,10.00
2023-03-21T13:03:30.537Z,10.10
2023-03-21T13:09:42.036Z,10.10
2023-03-21T13:15:57.920Z,10.10
2023-03-21T13:22:19.547Z,10.30
2023-03-21T13:28:34.209Z,10.20
2023-03-21T13:34:38.734Z,10.30
2023-03-21T13:40:43.582Z,10.20
2023-03-21T13:46:54.399Z,10.20
2023-03-21T13:53:19.403Z,10.30
2023-03-21T13:59:38.432Z,10.50
2023-03-21T14:05:41.054Z,10.50
2023-03-21T14:11:46.797Z,10.50
2023-03-21T14:17:55.766Z,10.60
2023-03-21T14:24:03.694Z,10.50
2023-03-21T14:30:06.523Z,10.50
2023-03-21T14:36:15.617Z,10.50
2023-03-21T14:42:17.857Z,10.50
2023-03-21T14:48:28.472Z,10.60
2023-03-21T14:54:31.398Z,10.70
2023-03-21T15:00:35.622Z,10.80
2023-03-21T15:07:04.982Z,10.70
2023-03-21T15:13:19.543Z,10.70
2023-03-21T15:19:23.963Z,10.70
2023-03-21T15:25:32.954Z,10.70
2023-03-21T15:31:36.761Z,10.70
2023-03-21T15:37:38.769Z,10.70
2023-03-21T15:43:40.981Z,10.60
2023-03-21T15:49:42.753Z,10.60
2023-03-21T15:55:49.864Z,10.70
2023-03-21T16:01:52.504Z,10.60
2023-03-21T16:07:58.415Z,10.60
2023-03-21T16:14:00.517Z,10.60
2023-03-21T16:20:02.421Z,10.60
2023-03-21T16:26:05.472Z,10.50
2023-03-21T16:32:15.663Z,10.50
2023-03-21T16:38:17.798Z,10.50
2023-03-21T16:44:20.567Z,10.40
2023-03-21T16:50:42.442Z,10.40
2023-03-21T16:56:51.846Z,10.40
2023-03-21T17:02:55.663Z,10.60
2023-03-21T17:08:58.866Z,10.40
2023-03-21T17:15:00.655Z,10.30
2023-03-21T17:21:02.954Z,10.10
2023-03-21T17:27:07.956Z,10.10
2023-03-21T17:33:09.892Z,10.00
2023-03-21T17:39:18.674Z,9.90
2023-03-21T17:45:21.938Z,9.80
2023-03-21T17:51:26.205Z,9.80
2023-03-21T17:57:28.103Z,9.70
2023-03-21T18:03:29.917Z,9.80
2023-03-21T18:09:31.965Z,9.70
2023-03-21T18:15:35.947Z,9.80
2023-03-21T18:21:45.870Z,9.70
2023-03-21T18:28:09.429Z,9.70
2023-03-21T18:34:09.683Z,9.80
2023-03-21T18:40:12.162Z,9.70
2023-03-21T18:46:15.775Z,9.60
2023-03-21T18:52:17.642Z,9.60
2023-03-21T18:58:19.507Z,9.60
2023-03-21T19:04:29.383Z,9.60
2023-03-21T19:10:32.164Z,9.70
2023-03-21T19:16:48.681Z,9.70
2023-03-21T19:22:57.197Z,9.80
2023-03-21T19:28:59.019Z,9.80
2023-03-21T19:35:01.218Z,9.80
2023-03-21T19:41:03.942Z,9.80
2023-03-21T19:47:06.573Z,9.70
2023-03-21T19:53:08.606Z,9.70
2023-03-21T19:59:10.583Z,9.60
2023-03-21T20:05:13.775Z,9.60
2023-03-21T20:11:15.758Z,9.60
2023-03-21T20:17:17.598Z,9.60
2023-03-21T20:23:20.343Z,9.50
2023-03-21T20:42:07.233Z,9.60
2023-03-21T20:48:09.336Z,9.60
2023-03-21T20:54:11.423Z,9.50
2023-03-21T21:00:15.233Z,9.40
2023-03-21T21:06:20.090Z,9.30
2023-03-21T21:12:27.415Z,9.30
2023-03-21T21:18:30.356Z,9.20
2023-03-21T21:24:32.180Z,9.30
2023-03-21T21:30:38.326Z,9.30
2023-03-21T21:36:40.361Z,9.30
2023-03-21T21:42:43.529Z,9.40
2023-03-21T21:48:45.486Z,9.50
2023-03-21T21:54:48.713Z,9.60
2023-03-21T22:00:51.914Z,9.50
2023-03-21T22:06:55.087Z,9.60
2023-03-21T22:12:56.900Z,9.50
2023-03-21T22:18:58.654Z,9.40
2023-03-21T22:25:00.464Z,9.30
2023-03-21T22:31:14.588Z,9.30
2023-03-21T22:37:16.529Z,9.20
2023-03-21T22:43:18.446Z,9.00
2023-03-21T22:49:20.539Z,9.10
2023-03-21T22:55:22.513Z,9.10
2023-03-21T23:01:24.629Z,9.20
2023-03-21T23:07:26.676Z,9.10
2023-03-21T23:13:28.862Z,9.10
2023-03-21T23:19:31.369Z,9.20
2023-03-21T23:25:33.859Z,9.30
2023-03-21T23:31:36.482Z,9.30
2023-03-21T23:37:42.327Z,9.30
2023-03-21T23:43:44.308Z,9.50
2023-03-21T23:49:49.171Z,9.40
2023-03-21T23:55:58.404Z,9.40
